createdAt,value
2018-07-24T00:01:52.173Z,73.82
2018-07-24T00:06:46.732Z,74.42
2018-07-24T00:11:41.320Z,74.53
2018-07-24T00:16:36.011Z,74.78
2018-07-24T00:21:30.588Z,75.18
2018-07-24T00:26:25.185Z,75.41
2018-07-24T00:31:19.805Z,74.86
2018-07-24T00:36:14.421Z,75.34
2018-07-24T00:41:09.050Z,75.89
2018-07-24T00:46:03.673Z,76.04
2018-07-24T00:50:58.355Z,76.21
2018-07-24T00:55:53.065Z,76.62
2018-07-24T01:00:47.659Z,77.25
2018-07-24T01:05:42.289Z,77.09
2018-07-24T01:10:36.864Z,77.83
2018-07-24T01:15:31.456Z,77.16
2018-07-24T01:20:26.077Z,78.29
2018-07-24T01:25:20.609Z,78.94
2018-07-24T01:30:15.185Z,76.97
2018-07-24T01:35:09.777Z,77.91
2018-07-24T01:40:04.430Z,78.31
2018-07-24T01:44:59.176Z,79.51
2018-07-24T01:49:53.801Z,78.85
2018-07-24T01:54:48.341Z,78.39
2018-07-24T01:59:42.907Z,78.54
2018-07-24T02:04:37.467Z,78.64
2018-07-24T02:09:31.750Z,78.95
2018-07-24T02:14:26.332Z,79.15
2018-07-24T02:19:20.933Z,79.89
2018-07-24T02:24:15.439Z,78.68
2018-07-24T02:29:10.038Z,79.06
2018-07-24T02:34:04.578Z,79.43
2018-07-24T02:38:59.122Z,79.63
2018-07-24T02:43:53.680Z,79.21
2018-07-24T02:48:48.245Z,79.45
2018-07-24T02:53:42.846Z,79.73
2018-07-24T02:58:37.449Z,78.47
2018-07-24T03:03:32.068Z,79.76
2018-07-24T03:08:26.693Z,80.24
2018-07-24T03:13:21.608Z,79.61
2018-07-24T03:18:16.160Z,77.63
2018-07-24T03:23:10.743Z,76.30
2018-07-24T03:28:05.341Z,75.53
2018-07-24T03:32:59.937Z,76.33
2018-07-24T03:37:54.518Z,75.83
2018-07-24T03:42:49.077Z,75.14
2018-07-24T03:47:43.729Z,75.28
2018-07-24T03:52:38.347Z,75.22
2018-07-24T03:57:32.970Z,75.53
2018-07-24T04:02:27.622Z,74.95
2018-07-24T04:07:22.159Z,74.80
2018-07-24T04:12:16.737Z,73.71
2018-07-24T04:17:11.288Z,72.49
2018-07-24T04:22:05.873Z,67.83
2018-07-24T04:27:00.491Z,64.68
2018-07-24T04:31:55.061Z,61.45
2018-07-24T04:36:49.377Z,58.50
2018-07-24T04:41:44.141Z,56.10
2018-07-24T04:46:38.697Z,55.11
2018-07-24T04:51:33.395Z,53.08
2018-07-24T04:56:28.236Z,53.19
2018-07-24T05:01:22.789Z,51.05
2018-07-24T05:06:18.069Z,50.25
2018-07-24T05:11:12.620Z,49.63
2018-07-24T05:16:07.214Z,53.93
2018-07-24T05:21:01.875Z,54.21
2018-07-24T05:25:56.630Z,50.40
2018-07-24T05:30:51.056Z,48.77
2018-07-24T05:35:45.480Z,46.96
2018-07-24T05:40:39.952Z,48.13
2018-07-24T05:45:34.393Z,46.43
2018-07-24T05:50:28.860Z,45.76
2018-07-24T05:55:23.321Z,45.69
2018-07-24T06:00:17.887Z,44.26
2018-07-24T06:05:12.656Z,43.71
2018-07-24T06:10:07.208Z,44.01
2018-07-24T06:15:01.680Z,43.31
2018-07-24T06:19:56.137Z,46.04
2018-07-24T06:24:50.638Z,45.69
2018-07-24T06:29:45.974Z,48.35
2018-07-24T06:34:45.569Z,50.22
2018-07-24T06:39:40.255Z,48.38
2018-07-24T06:44:34.767Z,47.21
2018-07-24T06:49:32.779Z,48.02
2018-07-24T06:54:27.396Z,47.19
2018-07-24T06:59:22.454Z,46.04
2018-07-24T07:04:16.969Z,47.26
2018-07-24T07:09:12.252Z,47.07
2018-07-24T07:14:07.000Z,47.16
2018-07-24T07:19:01.457Z,48.19
2018-07-24T07:23:58.923Z,48.37
2018-07-24T07:28:53.465Z,50.00
2018-07-24T07:33:47.924Z,47.06
2018-07-24T07:38:42.801Z,48.71
2018-07-24T07:43:36.955Z,48.78
2018-07-24T07:48:31.464Z,47.71
2018-07-24T07:53:26.108Z,48.14
2018-07-24T07:58:22.442Z,46.99
2018-07-24T08:03:17.386Z,47.86
2018-07-24T08:08:12.862Z,47.19
2018-07-24T08:13:07.418Z,45.68
2018-07-24T08:18:02.103Z,44.57
2018-07-24T08:23:01.864Z,44.26
2018-07-24T08:28:02.308Z,45.13
2018-07-24T08:32:57.656Z,43.16
2018-07-24T08:37:56.425Z,43.13
2018-07-24T08:42:51.110Z,41.70
2018-07-24T08:47:45.722Z,43.58
2018-07-24T08:52:51.512Z,44.54
2018-07-24T08:57:48.550Z,42.25
2018-07-24T09:02:43.241Z,41.83
2018-07-24T09:07:37.776Z,41.55
2018-07-24T09:12:32.249Z,41.95
2018-07-24T09:17:26.836Z,41.60
2018-07-24T09:22:21.308Z,43.33
2018-07-24T09:27:15.789Z,42.53
2018-07-24T09:32:10.849Z,40.24
2018-07-24T09:37:05.388Z,41.82
2018-07-24T09:42:00.764Z,40.91
2018-07-24T09:46:55.729Z,41.53
2018-07-24T09:51:52.313Z,41.36
2018-07-24T09:56:46.768Z,42.22
2018-07-24T10:01:41.290Z,41.39
2018-07-24T10:06:35.893Z,42.58
2018-07-24T10:11:30.374Z,39.97
2018-07-24T10:16:25.430Z,39.58
2018-07-24T10:21:19.877Z,39.28
2018-07-24T10:26:18.121Z,39.17
2018-07-24T10:31:13.119Z,39.11
2018-07-24T10:36:07.899Z,38.93
2018-07-24T10:41:02.456Z,38.20
2018-07-24T10:45:56.987Z,38.75
2018-07-24T10:50:51.174Z,38.26
2018-07-24T10:55:46.461Z,37.27
2018-07-24T11:00:40.990Z,37.78
2018-07-24T11:05:35.469Z,37.44
2018-07-24T11:10:29.969Z,36.28
2018-07-24T11:15:25.918Z,36.49
2018-07-24T11:20:20.545Z,35.48
2018-07-24T11:25:16.200Z,35.59
2018-07-24T11:30:10.521Z,36.08
2018-07-24T11:35:05.562Z,34.90
2018-07-24T11:40:00.165Z,35.12
2018-07-24T11:44:54.810Z,34.65
2018-07-24T11:49:49.328Z,33.79
2018-07-24T11:54:43.839Z,33.68
2018-07-24T11:59:38.314Z,34.39
2018-07-24T12:04:32.816Z,33.37
2018-07-24T12:09:27.408Z,33.83
2018-07-24T12:14:21.602Z,32.90
2018-07-24T12:19:16.689Z,33.68
2018-07-24T12:24:11.586Z,33.22
2018-07-24T12:29:06.077Z,32.36
2018-07-24T12:34:00.388Z,33.44
2018-07-24T12:38:54.858Z,32.42
2018-07-24T12:44:00.043Z,32.52
2018-07-24T12:48:54.373Z,32.98
2018-07-24T12:53:48.856Z,33.37
2018-07-24T12:58:43.079Z,31.70
2018-07-24T13:03:37.651Z,31.73
2018-07-24T13:08:32.165Z,30.91
2018-07-24T13:13:26.952Z,32.39
2018-07-24T13:18:22.533Z,32.20
2018-07-24T13:23:23.998Z,32.61
2018-07-24T13:28:19.665Z,32.24
2018-07-24T13:33:16.251Z,32.12
2018-07-24T13:38:10.812Z,31.23
2018-07-24T13:43:06.457Z,31.99
2018-07-24T13:48:01.084Z,31.81
2018-07-24T13:52:55.673Z,31.48
2018-07-24T13:57:51.197Z,30.67
2018-07-24T14:02:54.704Z,32.53
2018-07-24T14:07:51.252Z,31.26
2018-07-24T14:12:46.860Z,31.16
2018-07-24T14:17:44.786Z,31.76
2018-07-24T14:22:42.288Z,30.93
2018-07-24T14:27:38.725Z,31.36
2018-07-24T14:32:33.269Z,30.65
2018-07-24T14:37:27.782Z,31.08
2018-07-24T14:42:22.264Z,30.52
2018-07-24T14:47:16.749Z,31.24
2018-07-24T14:52:11.296Z,30.03
2018-07-24T14:57:06.869Z,32.04
2018-07-24T15:02:01.477Z,31.28
2018-07-24T15:06:56.047Z,31.89
2018-07-24T15:12:02.436Z,30.69
2018-07-24T15:16:57.176Z,30.47
2018-07-24T15:21:51.757Z,30.38
2018-07-24T15:26:46.266Z,30.80
2018-07-24T15:31:40.868Z,30.86
2018-07-24T15:36:35.439Z,30.51
2018-07-24T15:41:30.112Z,30.21
2018-07-24T15:46:24.765Z,31.13
2018-07-24T15:51:20.080Z,30.75
2018-07-24T15:56:15.045Z,30.88
2018-07-24T16:01:09.718Z,31.08
2018-07-24T16:06:04.427Z,30.63
2018-07-24T16:10:59.113Z,30.80
2018-07-24T16:15:53.779Z,30.94
2018-07-24T16:20:48.372Z,31.17
2018-07-24T16:25:43.092Z,29.60
2018-07-24T16:30:37.904Z,29.93
2018-07-24T16:35:33.129Z,30.88
2018-07-24T16:40:27.726Z,30.41
2018-07-24T16:45:22.712Z,30.03
2018-07-24T16:50:18.099Z,31.05
2018-07-24T16:55:12.902Z,31.14
2018-07-24T17:00:09.295Z,31.91
2018-07-24T17:05:04.023Z,30.96
2018-07-24T17:09:58.757Z,31.97
2018-07-24T17:14:53.176Z,31.97
2018-07-24T17:19:47.866Z,31.49
2018-07-24T17:24:43.002Z,31.22
2018-07-24T17:29:37.713Z,31.35
2018-07-24T17:34:32.261Z,31.85
2018-07-24T17:39:26.801Z,31.71
2018-07-24T17:44:21.593Z,32.18
2018-07-24T17:49:16.217Z,33.04
2018-07-24T17:54:11.004Z,32.72
2018-07-24T17:59:05.646Z,33.76
2018-07-24T18:03:59.906Z,34.04
2018-07-24T18:08:54.525Z,33.71
2018-07-24T18:13:49.133Z,34.45
2018-07-24T18:18:43.841Z,34.67
2018-07-24T18:23:38.466Z,35.36
2018-07-24T18:28:33.045Z,35.61
2018-07-24T18:33:27.592Z,35.55
2018-07-24T18:38:22.200Z,37.63
2018-07-24T18:43:16.734Z,37.51
2018-07-24T18:48:11.299Z,38.78
2018-07-24T18:53:05.964Z,38.64
2018-07-24T18:58:00.756Z,39.69
2018-07-24T19:02:55.513Z,39.53
2018-07-24T19:07:50.071Z,40.18
2018-07-24T19:12:44.598Z,40.29
2018-07-24T19:17:39.186Z,40.48
2018-07-24T19:22:33.774Z,41.15
2018-07-24T19:27:28.311Z,40.65
2018-07-24T19:32:22.884Z,41.65
2018-07-24T19:37:17.433Z,41.43
2018-07-24T19:42:11.995Z,41.98
2018-07-24T19:47:06.822Z,41.55
2018-07-24T19:52:01.379Z,42.50
2018-07-24T19:56:56.051Z,41.92
2018-07-24T20:01:50.880Z,42.97
2018-07-24T20:06:45.628Z,42.92
2018-07-24T20:11:39.869Z,42.63
2018-07-24T20:16:34.428Z,43.89
2018-07-24T20:21:28.993Z,43.13
2018-07-24T20:26:23.546Z,43.86
2018-07-24T20:31:18.193Z,43.13
2018-07-24T20:36:12.440Z,44.09
2018-07-24T20:41:06.907Z,43.99
2018-07-24T20:46:01.504Z,43.81
2018-07-24T20:50:56.112Z,44.16
2018-07-24T20:55:50.677Z,44.15
2018-07-24T21:00:45.242Z,44.54
2018-07-24T21:05:39.867Z,44.39
2018-07-24T21:10:34.458Z,44.38
2018-07-24T21:15:29.044Z,44.29
2018-07-24T21:20:23.656Z,44.31
2018-07-24T21:25:18.264Z,44.19
2018-07-24T21:30:12.838Z,44.23
2018-07-24T21:35:07.466Z,44.74
2018-07-24T21:40:02.036Z,44.86
2018-07-24T21:44:56.599Z,46.47
2018-07-24T21:49:51.157Z,46.47
2018-07-24T21:54:45.760Z,48.16
2018-07-24T21:59:40.358Z,50.03
2018-07-24T22:04:34.913Z,50.18
2018-07-24T22:09:29.525Z,50.33
2018-07-24T22:14:24.138Z,50.90
2018-07-24T22:19:18.765Z,52.38
2018-07-24T22:24:13.335Z,51.59
2018-07-24T22:29:07.869Z,52.27
2018-07-24T22:34:02.411Z,52.78
2018-07-24T22:38:56.971Z,52.84
2018-07-24T22:43:51.561Z,51.92
2018-07-24T22:48:46.076Z,52.54
2018-07-24T22:53:40.632Z,53.76
2018-07-24T22:58:35.201Z,55.05
2018-07-24T23:03:29.754Z,53.74
2018-07-24T23:08:24.309Z,53.97
2018-07-24T23:13:18.839Z,54.69
2018-07-24T23:18:13.152Z,54.71
2018-07-24T23:23:08.029Z,55.90
2018-07-24T23:28:02.604Z,54.46
2018-07-24T23:32:57.175Z,55.05
2018-07-24T23:37:52.090Z,56.21
2018-07-24T23:42:46.676Z,55.51
2018-07-24T23:47:40.871Z,56.12
2018-07-24T23:52:35.428Z,56.19
2018-07-24T23:57:29.968Z,56.85
